Main page
METAR-TAF:

METAR-TAF

Airports :

Pskov Airport

Pskov, Russia

latitude: 57-47-06N, longitude: 028-23-54E, elevation: 47 m

Current weather observation

The report was made 46 minutes ago, at 16:00 UTC
Wind 6 kt from the West
Temperature -2°C
Humidity 93%
Pressure 1030 hPa
Visibility: 9000 m

METAR: ULOO 201600Z AUTO 26003MPS 9000 // ///010/// M02/M03 Q1030 RMK QFE768

Time: 19:46 (16:46 UTC)

Forecast

The report was made 5 hours and 45 minutes ago, at 11:01 UTC
Forecast valid from 20 at 12 UTC to 20 at 21 UTC
Wind 6 kt from the West
Visibility: 6000 m
Broken clouds at a height of 1100 ft
Temporary
from 20 at 12 UTC to 20 at 16 UTC
Visibility: 5000 m
light snow, mist
Temporary
from 20 at 16 UTC to 20 at 21 UTC
Wind 6 kt from the West/Northwest
Visibility: 3100 m
Broken clouds at a height of 800 ft
light snow, mist

TAF: ULOO 201101Z 2012/2021 26003MPS 6000 BKN011 TEMPO 2012/2016 5000 -SN BR TEMPO 2016/2021 30003MPS 3100 -SN BR BKN008

Weather observations and forecasts of more than 4000 airports (METAR and TAF reports).

The available stations are represented by yellow and red dots on the map.

Hover mouse over dot to see the name of the station.

Then click to see weather observations and forecasts.

To change the map : click on the green buttons with a black cross to zoom in, on the green button with a dash to zoom out, or on the green arrows for adjacent maps.


METAR-TAF: